Westbrook, Texas
Current Conditions -  °F | °C
As of 6:55 AM on Saturday 25 Oct 2014 (Local Time) from KSNK Reporting Station
Clear Clear  
Wind Chill: 57°   Ceiling: Unl
Heat Index: 57°   Visibility: 10mi
Dew Point: 55°   Wind: 3mph
Humidity: 92%   Direction: 220°SW
Pressure: 30.17"   Gusts: NA
Location:  32.36°N, 101.01°W
Report Text: KSNK 251155Z AUTO 22003KT 10SM CLR 14/13 A3017 RMK AO2 T01390127
Loading
Personal Weather Stations






























Interactive Weather Map
Tropical Storm Tracking
New forecast layout! Learn more

10-Day Weather Forecast

Advertisements
Track Severe Weather on mobile